createdAt,value
2018-07-09T00:00:04.703Z,1010.5
2018-07-09T00:01:06.102Z,1010.5
2018-07-09T00:02:07.491Z,1010.5
2018-07-09T00:03:08.892Z,1010.5
2018-07-09T00:04:10.288Z,1010.5
2018-07-09T00:05:11.684Z,1010.5
2018-07-09T00:06:13.152Z,1010.5
2018-07-09T00:07:14.484Z,1010.6
2018-07-09T00:08:15.882Z,1010.6
2018-07-09T00:09:17.279Z,1010.6
2018-07-09T00:10:18.665Z,1010.5
2018-07-09T00:11:20.060Z,1010.5
2018-07-09T00:12:22.431Z,1010.5
2018-07-09T00:13:23.831Z,1010.5
2018-07-09T00:14:25.226Z,1010.5
2018-07-09T00:15:26.623Z,1010.5
2018-07-09T00:16:28.016Z,1010.5
2018-07-09T00:17:29.419Z,1010.5
2018-07-09T00:18:30.812Z,1010.5
2018-07-09T00:19:32.205Z,1010.6
2018-07-09T00:20:33.601Z,1010.6
2018-07-09T00:21:34.998Z,1010.6
2018-07-09T00:22:36.403Z,1010.6
2018-07-09T00:23:37.792Z,1010.6
2018-07-09T00:24:39.186Z,1010.6
2018-07-09T00:25:40.579Z,1010.6
2018-07-09T00:26:41.975Z,1010.6
2018-07-09T00:27:43.393Z,1010.6
2018-07-09T00:28:44.797Z,1010.6
2018-07-09T00:29:46.195Z,1010.6
2018-07-09T00:30:47.589Z,1010.6
2018-07-09T00:31:48.983Z,1010.6
2018-07-09T00:32:50.374Z,1010.5
2018-07-09T00:33:51.769Z,1010.5
2018-07-09T00:34:53.169Z,1010.5
2018-07-09T00:35:54.561Z,1010.5
2018-07-09T00:36:55.960Z,1010.5
2018-07-09T00:37:57.354Z,1010.5
2018-07-09T00:38:58.749Z,1010.5
2018-07-09T00:40:00.150Z,1010.6
2018-07-09T00:41:01.545Z,1010.6
2018-07-09T00:42:02.938Z,1010.6
2018-07-09T00:43:04.338Z,1010.6
2018-07-09T00:44:05.737Z,1010.5
2018-07-09T00:45:07.135Z,1010.6
2018-07-09T00:46:08.535Z,1010.6
2018-07-09T00:47:09.926Z,1010.6
2018-07-09T00:48:11.322Z,1010.6
2018-07-09T00:49:12.718Z,1010.7
2018-07-09T00:50:14.113Z,1010.6
2018-07-09T00:51:15.504Z,1010.6
2018-07-09T00:52:16.900Z,1010.6
2018-07-09T00:53:18.291Z,1010.6
2018-07-09T00:54:19.680Z,1010.7
2018-07-09T00:55:21.077Z,1010.7
2018-07-09T00:56:22.469Z,1010.7
2018-07-09T00:57:23.860Z,1010.6
2018-07-09T00:58:25.268Z,1010.6
2018-07-09T00:59:28.065Z,1010.6
2018-07-09T01:00:29.474Z,1010.6
2018-07-09T01:01:30.875Z,1010.6
2018-07-09T01:02:32.271Z,1010.6
2018-07-09T01:03:33.670Z,1010.7
2018-07-09T01:04:35.065Z,1010.6
2018-07-09T01:05:36.466Z,1010.7
2018-07-09T01:06:37.864Z,1010.6
2018-07-09T01:07:39.256Z,1010.6
2018-07-09T01:08:40.684Z,1010.6
2018-07-09T01:09:42.148Z,1010.6
2018-07-09T01:10:43.542Z,1010.5
2018-07-09T01:11:44.935Z,1010.6
2018-07-09T01:12:46.333Z,1010.6
2018-07-09T01:13:47.731Z,1010.6
2018-07-09T01:14:49.131Z,1010.5
2018-07-09T01:15:50.529Z,1010.6
2018-07-09T01:16:51.927Z,1010.6
2018-07-09T01:17:53.321Z,1010.6
2018-07-09T01:18:54.712Z,1010.6
2018-07-09T01:19:56.106Z,1010.6
2018-07-09T01:20:57.515Z,1010.6
2018-07-09T01:21:58.908Z,1010.6
2018-07-09T01:23:00.300Z,1010.6
2018-07-09T01:24:01.691Z,1010.6
2018-07-09T01:25:03.094Z,1010.6
2018-07-09T01:26:04.488Z,1010.5
2018-07-09T01:27:05.880Z,1010.6
2018-07-09T01:28:07.277Z,1010.5
2018-07-09T01:29:08.689Z,1010.6
2018-07-09T01:30:10.082Z,1010.6
2018-07-09T01:31:11.487Z,1010.6
2018-07-09T01:32:12.884Z,1010.6
2018-07-09T01:33:14.277Z,1010.6
2018-07-09T01:34:15.677Z,1010.5
2018-07-09T01:35:17.075Z,1010.6
2018-07-09T01:36:18.467Z,1010.5
2018-07-09T01:37:19.859Z,1010.5
2018-07-09T01:38:21.251Z,1010.6
2018-07-09T01:39:22.646Z,1010.6
2018-07-09T01:40:24.040Z,1010.6
2018-07-09T01:41:25.431Z,1010.6
2018-07-09T01:42:26.829Z,1010.5
2018-07-09T01:43:28.225Z,1010.5
2018-07-09T01:44:29.618Z,1010.5
2018-07-09T01:45:31.013Z,1010.5
2018-07-09T01:46:32.406Z,1010.5
2018-07-09T01:47:33.804Z,1010.5
2018-07-09T01:48:35.198Z,1010.5
2018-07-09T01:49:36.596Z,1010.5
2018-07-09T01:50:37.986Z,1010.5
2018-07-09T01:51:39.435Z,1010.5
2018-07-09T01:52:40.828Z,1010.5
2018-07-09T01:53:42.222Z,1010.5
2018-07-09T01:54:43.613Z,1010.5
2018-07-09T01:55:45.012Z,1010.5
2018-07-09T01:56:46.404Z,1010.5
2018-07-09T01:57:47.796Z,1010.4
2018-07-09T01:58:49.186Z,1010.5
2018-07-09T01:59:50.577Z,1010.5
2018-07-09T02:00:51.968Z,1010.5
2018-07-09T02:01:53.368Z,1010.5
2018-07-09T02:02:54.763Z,1010.5
2018-07-09T02:03:56.158Z,1010.5
2018-07-09T02:04:57.545Z,1010.5
2018-07-09T02:05:58.938Z,1010.5
2018-07-09T02:07:00.332Z,1010.5
2018-07-09T02:08:01.726Z,1010.5
2018-07-09T02:09:03.114Z,1010.5
2018-07-09T02:10:04.514Z,1010.6
2018-07-09T02:11:05.908Z,1010.5
2018-07-09T02:12:07.302Z,1010.5
2018-07-09T02:13:08.699Z,1010.5
2018-07-09T02:14:10.114Z,1010.5
2018-07-09T02:15:11.512Z,1010.5
2018-07-09T02:16:12.905Z,1010.5
2018-07-09T02:17:14.299Z,1010.5
2018-07-09T02:18:15.698Z,1010.5
2018-07-09T02:19:17.093Z,1010.4
2018-07-09T02:20:18.484Z,1010.5
2018-07-09T02:21:19.876Z,1010.4
2018-07-09T02:22:21.273Z,1010.4
2018-07-09T02:23:22.663Z,1010.4
2018-07-09T02:24:24.061Z,1010.4
2018-07-09T02:25:25.450Z,1010.4
2018-07-09T02:26:26.840Z,1010.4
2018-07-09T02:27:28.255Z,1010.4
2018-07-09T02:28:29.647Z,1010.4
2018-07-09T02:29:31.043Z,1010.4
2018-07-09T02:30:32.438Z,1010.4
2018-07-09T02:31:33.834Z,1010.4
2018-07-09T02:32:35.236Z,1010.4
2018-07-09T02:33:36.624Z,1010.4
2018-07-09T02:34:38.026Z,1010.4
2018-07-09T02:35:39.442Z,1010.4
2018-07-09T02:36:40.836Z,1010.4
2018-07-09T02:37:42.246Z,1010.3
2018-07-09T02:38:43.642Z,1010.4
2018-07-09T02:39:45.032Z,1010.4
2018-07-09T02:40:46.423Z,1010.4
2018-07-09T02:41:47.813Z,1010.4
2018-07-09T02:42:49.202Z,1010.4
2018-07-09T02:43:50.596Z,1010.4
2018-07-09T02:44:51.986Z,1010.4
2018-07-09T02:45:53.412Z,1010.4
2018-07-09T02:46:54.790Z,1010.4
2018-07-09T02:47:56.187Z,1010.4
2018-07-09T02:48:57.607Z,1010.5
2018-07-09T02:49:58.996Z,1010.4
2018-07-09T02:51:00.390Z,1010.5
2018-07-09T02:52:01.783Z,1010.4
2018-07-09T02:53:03.213Z,1010.5
2018-07-09T02:54:04.611Z,1010.5
2018-07-09T02:55:06.004Z,1010.4
2018-07-09T02:56:07.404Z,1010.5
2018-07-09T02:57:08.797Z,1010.5
2018-07-09T02:58:10.186Z,1010.5
2018-07-09T02:59:11.578Z,1010.5
2018-07-09T03:00:12.974Z,1010.5
2018-07-09T03:01:14.528Z,1010.5
2018-07-09T03:02:15.758Z,1010.5
2018-07-09T03:03:17.151Z,1010.5
2018-07-09T03:04:18.548Z,1010.6
2018-07-09T03:05:19.937Z,1010.6
2018-07-09T03:06:21.331Z,1010.6
2018-07-09T03:07:22.723Z,1010.6
2018-07-09T03:08:24.118Z,1010.6
2018-07-09T03:09:25.507Z,1010.6
2018-07-09T03:10:26.897Z,1010.6
2018-07-09T03:11:28.286Z,1010.5
2018-07-09T03:12:29.683Z,1010.5
2018-07-09T03:13:31.077Z,1010.5
2018-07-09T03:14:32.469Z,1010.5
2018-07-09T03:15:33.861Z,1010.5
2018-07-09T03:16:35.317Z,1010.5
2018-07-09T03:17:36.757Z,1010.6
2018-07-09T03:18:38.155Z,1010.6
2018-07-09T03:19:39.543Z,1010.6
2018-07-09T03:20:40.936Z,1010.5
2018-07-09T03:21:42.354Z,1010.5
2018-07-09T03:22:43.725Z,1010.5
2018-07-09T03:23:45.113Z,1010.4
2018-07-09T03:24:46.506Z,1010.5
2018-07-09T03:25:47.898Z,1010.5
2018-07-09T03:26:49.292Z,1010.5
2018-07-09T03:27:50.708Z,1010.5
2018-07-09T03:28:52.101Z,1010.5
2018-07-09T03:29:53.498Z,1010.5
2018-07-09T03:30:54.890Z,1010.5
2018-07-09T03:31:56.295Z,1010.5
2018-07-09T03:32:57.678Z,1010.5
2018-07-09T03:33:59.070Z,1010.5
2018-07-09T03:35:00.461Z,1010.5
2018-07-09T03:36:01.855Z,1010.5
2018-07-09T03:37:03.249Z,1010.5
2018-07-09T03:38:04.648Z,1010.5
2018-07-09T03:39:06.038Z,1010.5
2018-07-09T03:40:07.434Z,1010.6
2018-07-09T03:41:08.821Z,1010.6
2018-07-09T03:42:10.215Z,1010.6
2018-07-09T03:43:11.615Z,1010.5
2018-07-09T03:44:13.011Z,1010.6
2018-07-09T03:45:14.407Z,1010.6
2018-07-09T03:46:15.801Z,1010.6
2018-07-09T03:47:17.207Z,1010.6
2018-07-09T03:48:18.593Z,1010.6
2018-07-09T03:49:19.985Z,1010.6
2018-07-09T03:50:21.429Z,1010.7
2018-07-09T03:51:22.820Z,1010.6
2018-07-09T03:52:24.212Z,1010.6
2018-07-09T03:53:25.611Z,1010.6
2018-07-09T03:54:27.002Z,1010.6
2018-07-09T03:55:28.396Z,1010.6
2018-07-09T03:56:29.802Z,1010.6
2018-07-09T03:57:31.187Z,1010.6
2018-07-09T03:58:32.588Z,1010.7
2018-07-09T03:59:33.984Z,1010.6
2018-07-09T04:00:35.389Z,1010.6
2018-07-09T04:01:36.785Z,1010.6
2018-07-09T04:02:38.178Z,1010.6
2018-07-09T04:03:39.576Z,1010.6
2018-07-09T04:04:40.973Z,1010.7
2018-07-09T04:05:42.379Z,1010.7
2018-07-09T04:06:43.770Z,1010.7
2018-07-09T04:07:45.164Z,1010.8
2018-07-09T04:08:46.560Z,1010.8
2018-07-09T04:09:47.956Z,1010.8
2018-07-09T04:10:49.377Z,1010.8
2018-07-09T04:11:50.774Z,1010.8
2018-07-09T04:12:52.173Z,1010.8
2018-07-09T04:13:53.565Z,1010.7
2018-07-09T04:14:54.959Z,1010.8
2018-07-09T04:15:56.358Z,1010.8
2018-07-09T04:16:57.756Z,1010.8
2018-07-09T04:17:59.150Z,1010.8
2018-07-09T04:19:00.549Z,1010.8
2018-07-09T04:20:01.945Z,1010.8
2018-07-09T04:21:03.339Z,1010.8
2018-07-09T04:22:04.732Z,1010.8
2018-07-09T04:23:06.133Z,1010.8
2018-07-09T04:24:07.526Z,1010.8
2018-07-09T04:25:08.924Z,1010.8
2018-07-09T04:26:10.333Z,1010.8
2018-07-09T04:27:11.722Z,1010.9
2018-07-09T04:28:13.120Z,1010.8
2018-07-09T04:29:14.514Z,1010.8
2018-07-09T04:30:15.926Z,1010.8
2018-07-09T04:31:17.329Z,1010.9
2018-07-09T04:32:18.728Z,1010.9
2018-07-09T04:33:20.153Z,1010.9
2018-07-09T04:34:21.549Z,1010.9
2018-07-09T04:35:22.947Z,1010.9
2018-07-09T04:36:24.342Z,1010.9
2018-07-09T04:37:25.737Z,1010.9
2018-07-09T04:38:27.138Z,1010.9
2018-07-09T04:39:28.539Z,1011.0
2018-07-09T04:40:29.934Z,1010.9
2018-07-09T04:41:31.334Z,1010.9
2018-07-09T04:42:32.751Z,1010.9
2018-07-09T04:43:34.191Z,1011.0
2018-07-09T04:44:35.590Z,1010.9
2018-07-09T04:45:36.983Z,1011.0
2018-07-09T04:46:38.398Z,1010.9
2018-07-09T04:47:39.791Z,1011.0
2018-07-09T04:48:41.191Z,1010.9
2018-07-09T04:49:42.583Z,1011.0
2018-07-09T04:50:43.981Z,1011.0
2018-07-09T04:51:45.378Z,1011.0
2018-07-09T04:52:46.773Z,1011.0
2018-07-09T04:53:48.172Z,1010.8
2018-07-09T04:54:49.566Z,1010.9
2018-07-09T04:55:50.965Z,1011.0
2018-07-09T04:56:52.357Z,1011.0
2018-07-09T04:57:53.752Z,1011.0
2018-07-09T04:58:55.144Z,1011.0
2018-07-09T04:59:56.540Z,1010.9
2018-07-09T05:00:57.932Z,1011.0
2018-07-09T05:01:59.332Z,1011.0
2018-07-09T05:03:00.736Z,1011.0
2018-07-09T05:04:02.136Z,1011.0
2018-07-09T05:05:03.533Z,1010.9
2018-07-09T05:06:04.930Z,1010.9
2018-07-09T05:07:06.326Z,1010.9
2018-07-09T05:08:07.723Z,1010.9
2018-07-09T05:09:09.118Z,1010.9
2018-07-09T05:10:10.514Z,1010.9
2018-07-09T05:11:11.909Z,1010.9
2018-07-09T05:12:13.303Z,1010.8
2018-07-09T05:13:14.703Z,1010.8
2018-07-09T05:14:16.110Z,1010.8
2018-07-09T05:15:17.503Z,1010.8
2018-07-09T05:16:19.384Z,1010.9
2018-07-09T05:17:20.780Z,1010.9
2018-07-09T05:18:22.183Z,1010.9
2018-07-09T05:19:23.576Z,1010.9
2018-07-09T05:20:24.969Z,1010.9
2018-07-09T05:21:26.369Z,1010.9
2018-07-09T05:22:27.771Z,1010.9
2018-07-09T05:23:29.166Z,1011.0
2018-07-09T05:24:30.569Z,1011.0
2018-07-09T05:25:32.027Z,1011.0
2018-07-09T05:26:33.421Z,1011.0
2018-07-09T05:27:34.815Z,1011.0
2018-07-09T05:28:36.224Z,1011.0
2018-07-09T05:29:37.618Z,1011.0
2018-07-09T05:30:39.015Z,1011.0
2018-07-09T05:31:40.414Z,1011.0
2018-07-09T05:32:42.173Z,1011.0
2018-07-09T05:33:43.567Z,1011.0
2018-07-09T05:34:44.978Z,1011.1
2018-07-09T05:35:46.370Z,1011.1
2018-07-09T05:36:47.766Z,1011.1
2018-07-09T05:37:49.187Z,1011.1
2018-07-09T05:38:50.581Z,1011.2
2018-07-09T05:39:51.995Z,1011.1
2018-07-09T05:40:53.371Z,1011.1
2018-07-09T05:41:54.762Z,1011.1
2018-07-09T05:42:56.158Z,1011.2
2018-07-09T05:43:57.553Z,1011.2
2018-07-09T05:44:58.950Z,1011.1
2018-07-09T05:46:00.349Z,1011.1
2018-07-09T05:47:01.898Z,1011.1
2018-07-09T05:48:03.170Z,1011.1
2018-07-09T05:49:04.573Z,1011.1
2018-07-09T05:50:05.965Z,1011.1
2018-07-09T05:51:07.409Z,1011.1
2018-07-09T05:52:08.821Z,1011.1
2018-07-09T05:53:10.227Z,1011.1
2018-07-09T05:54:11.621Z,1011.1
2018-07-09T05:55:13.016Z,1011.1
2018-07-09T05:56:14.713Z,1011.0
2018-07-09T05:57:16.076Z,1011.0
2018-07-09T05:58:17.470Z,1011.0
2018-07-09T05:59:18.875Z,1011.0
2018-07-09T06:00:20.272Z,1011.0
2018-07-09T06:01:21.671Z,1011.0
2018-07-09T06:02:23.067Z,1010.9
2018-07-09T06:03:24.464Z,1010.9
2018-07-09T06:04:25.857Z,1010.9
2018-07-09T06:05:27.271Z,1010.9
2018-07-09T06:06:28.715Z,1011.0
2018-07-09T06:07:30.118Z,1010.9
2018-07-09T06:08:31.523Z,1010.9
2018-07-09T06:09:32.922Z,1010.9
2018-07-09T06:10:34.332Z,1010.9
2018-07-09T06:11:35.838Z,1010.9
2018-07-09T06:12:37.127Z,1010.9
2018-07-09T06:13:38.586Z,1010.8
2018-07-09T06:14:39.929Z,1010.9
2018-07-09T06:15:41.332Z,1010.9
2018-07-09T06:16:42.728Z,1010.9
2018-07-09T06:17:44.123Z,1010.9
2018-07-09T06:18:45.522Z,1010.9
2018-07-09T06:19:46.999Z,1010.9
2018-07-09T06:20:48.333Z,1010.9
2018-07-09T06:21:49.727Z,1010.9
2018-07-09T06:22:51.129Z,1011.0
2018-07-09T06:23:52.523Z,1010.9
2018-07-09T06:24:53.923Z,1010.9
2018-07-09T06:25:55.317Z,1010.9
2018-07-09T06:26:56.714Z,1010.9
2018-07-09T06:27:58.113Z,1011.0
2018-07-09T06:28:59.510Z,1010.9
2018-07-09T06:30:00.909Z,1011.0
2018-07-09T06:31:02.314Z,1011.0
2018-07-09T06:32:03.712Z,1010.9
2018-07-09T06:33:05.114Z,1010.9
2018-07-09T06:34:06.512Z,1010.9
2018-07-09T06:35:07.910Z,1010.9
2018-07-09T06:36:09.311Z,1011.0
2018-07-09T06:37:10.707Z,1010.9
2018-07-09T06:38:12.104Z,1010.9
2018-07-09T06:39:13.502Z,1010.9
2018-07-09T06:40:14.916Z,1010.9
2018-07-09T06:41:16.314Z,1010.9
2018-07-09T06:42:17.709Z,1010.8
2018-07-09T06:43:19.109Z,1010.8
2018-07-09T06:44:20.504Z,1010.9
2018-07-09T06:45:21.899Z,1010.9
2018-07-09T06:46:23.300Z,1010.9
2018-07-09T06:47:24.694Z,1010.9
2018-07-09T06:48:26.096Z,1010.9
2018-07-09T06:49:27.502Z,1010.9
2018-07-09T06:50:28.906Z,1010.9
2018-07-09T06:51:30.299Z,1010.9
2018-07-09T06:52:31.696Z,1010.9
2018-07-09T06:53:33.094Z,1010.9
2018-07-09T06:54:34.495Z,1010.9
2018-07-09T06:55:35.893Z,1011.0
2018-07-09T06:56:37.294Z,1011.0
2018-07-09T06:57:38.695Z,1011.0
2018-07-09T06:58:40.100Z,1011.0
2018-07-09T06:59:41.495Z,1011.0
2018-07-09T07:00:42.909Z,1011.0
2018-07-09T07:01:44.311Z,1011.0
2018-07-09T07:02:45.708Z,1011.0
2018-07-09T07:03:47.109Z,1011.0
2018-07-09T07:04:48.518Z,1011.0
2018-07-09T07:05:49.912Z,1011.0
2018-07-09T07:06:51.310Z,1011.0
2018-07-09T07:07:52.709Z,1011.0
2018-07-09T07:08:54.221Z,1010.9
2018-07-09T07:09:55.502Z,1011.0
2018-07-09T07:10:56.901Z,1011.0
2018-07-09T07:11:58.301Z,1011.0
2018-07-09T07:12:59.695Z,1011.0
2018-07-09T07:14:01.097Z,1011.0
2018-07-09T07:15:02.497Z,1011.0
2018-07-09T07:16:03.896Z,1011.0
2018-07-09T07:17:05.292Z,1011.0
2018-07-09T07:18:06.722Z,1011.0
2018-07-09T07:19:08.127Z,1010.9
2018-07-09T07:20:09.530Z,1011.0
2018-07-09T07:21:10.928Z,1010.9
2018-07-09T07:22:12.326Z,1011.0
2018-07-09T07:23:13.724Z,1011.0
2018-07-09T07:24:15.135Z,1011.0
2018-07-09T07:25:16.537Z,1011.0
2018-07-09T07:26:17.939Z,1011.1
2018-07-09T07:27:19.333Z,1011.0
2018-07-09T07:28:20.736Z,1011.1
2018-07-09T07:29:22.133Z,1011.1
2018-07-09T07:30:23.537Z,1011.1
2018-07-09T07:31:25.035Z,1011.1
2018-07-09T07:32:26.419Z,1011.1
2018-07-09T07:33:27.819Z,1011.1
2018-07-09T07:34:29.217Z,1011.1
2018-07-09T07:35:30.613Z,1011.0
2018-07-09T07:36:32.015Z,1011.1
2018-07-09T07:37:33.417Z,1011.0
2018-07-09T07:38:34.822Z,1011.0
2018-07-09T07:39:36.784Z,1011.0
2018-07-09T07:40:38.185Z,1011.0
2018-07-09T07:41:39.583Z,1011.0
2018-07-09T07:42:40.981Z,1011.1
2018-07-09T07:43:42.387Z,1011.1
2018-07-09T07:44:43.805Z,1011.1
2018-07-09T07:45:45.188Z,1011.1
2018-07-09T07:46:46.586Z,1011.1
2018-07-09T07:47:47.987Z,1011.1
2018-07-09T07:48:49.395Z,1011.1
2018-07-09T07:49:50.790Z,1011.0
2018-07-09T07:50:52.190Z,1011.1
2018-07-09T07:51:53.586Z,1011.0
2018-07-09T07:52:54.988Z,1011.0
2018-07-09T07:53:56.390Z,1011.0
2018-07-09T07:54:57.792Z,1011.0
2018-07-09T07:55:59.231Z,1011.0
2018-07-09T07:57:01.523Z,1011.0
2018-07-09T07:58:02.953Z,1011.0
2018-07-09T07:59:04.353Z,1011.0
2018-07-09T08:00:05.751Z,1011.0
2018-07-09T08:01:07.155Z,1011.0
2018-07-09T08:02:08.560Z,1011.0
2018-07-09T08:03:09.963Z,1011.0
2018-07-09T08:04:11.358Z,1010.9
2018-07-09T08:05:12.761Z,1010.9
2018-07-09T08:06:14.175Z,1010.9
2018-07-09T08:07:15.580Z,1010.9
2018-07-09T08:08:16.981Z,1010.9
2018-07-09T08:09:18.429Z,1010.8
2018-07-09T08:10:19.783Z,1010.8
2018-07-09T08:11:21.183Z,1010.8
2018-07-09T08:13:29.535Z,1010.8
2018-07-09T08:14:25.627Z,1010.9
2018-07-09T08:15:27.042Z,1010.8
2018-07-09T08:16:28.436Z,1010.8
2018-07-09T08:17:29.830Z,1010.8
2018-07-09T08:18:31.232Z,1010.8
2018-07-09T08:19:32.635Z,1010.9
2018-07-09T08:20:34.033Z,1010.9
2018-07-09T08:21:35.435Z,1010.9
2018-07-09T08:22:36.843Z,1010.9
2018-07-09T08:23:38.246Z,1010.9
2018-07-09T08:24:39.651Z,1010.9
2018-07-09T08:25:41.110Z,1011.0
2018-07-09T08:26:42.460Z,1010.9
2018-07-09T08:27:43.845Z,1011.0
2018-07-09T08:28:45.244Z,1010.9
2018-07-09T08:29:46.647Z,1010.9
2018-07-09T08:30:48.048Z,1011.0
2018-07-09T08:31:49.447Z,1011.0
2018-07-09T08:32:50.848Z,1011.0
2018-07-09T08:33:52.258Z,1011.0
2018-07-09T08:34:53.653Z,1011.0
2018-07-09T08:35:55.058Z,1011.0
2018-07-09T08:36:56.456Z,1010.9
2018-07-09T08:37:57.869Z,1010.9
2018-07-09T08:38:59.256Z,1010.9
2018-07-09T08:40:00.656Z,1010.9
2018-07-09T08:41:02.061Z,1010.8
2018-07-09T08:42:03.463Z,1010.8
2018-07-09T08:43:04.870Z,1010.9
2018-07-09T08:44:06.270Z,1010.8
2018-07-09T08:45:07.672Z,1010.8
2018-07-09T08:46:09.071Z,1010.8
2018-07-09T08:47:10.466Z,1010.8
2018-07-09T08:48:11.868Z,1010.8
2018-07-09T08:49:13.272Z,1010.8
2018-07-09T08:50:14.703Z,1010.8
2018-07-09T08:51:16.107Z,1010.8
2018-07-09T08:52:17.512Z,1010.7
2018-07-09T08:53:18.909Z,1010.8
2018-07-09T08:54:20.378Z,1010.8
2018-07-09T08:55:21.833Z,1010.7
2018-07-09T08:56:23.197Z,1010.8
2018-07-09T08:57:24.599Z,1010.7
2018-07-09T08:58:26.001Z,1010.7
2018-07-09T08:59:27.407Z,1010.7
2018-07-09T09:00:28.808Z,1010.7
2018-07-09T09:01:30.210Z,1010.7
2018-07-09T09:02:31.613Z,1010.7
2018-07-09T09:03:33.016Z,1010.7
2018-07-09T09:04:34.419Z,1010.7
2018-07-09T09:05:35.822Z,1010.7
2018-07-09T09:06:37.227Z,1010.7
2018-07-09T09:07:38.623Z,1010.7
2018-07-09T09:08:40.024Z,1010.7
2018-07-09T09:09:41.425Z,1010.7
2018-07-09T09:10:42.825Z,1010.6
2018-07-09T09:11:44.231Z,1010.7
2018-07-09T09:12:45.632Z,1010.7
2018-07-09T09:13:47.032Z,1010.7
2018-07-09T09:14:48.431Z,1010.6
2018-07-09T09:15:49.838Z,1010.7
2018-07-09T09:16:51.234Z,1010.7
2018-07-09T09:17:52.635Z,1010.7
2018-07-09T09:18:54.039Z,1010.6
2018-07-09T09:19:55.443Z,1010.6
2018-07-09T09:20:56.845Z,1010.6
2018-07-09T09:21:58.245Z,1010.6
2018-07-09T09:22:59.655Z,1010.5
2018-07-09T09:24:01.039Z,1010.5
2018-07-09T09:25:02.443Z,1010.6
2018-07-09T09:26:03.848Z,1010.7
2018-07-09T09:27:05.245Z,1010.7
2018-07-09T09:28:06.659Z,1010.6
2018-07-09T09:29:08.055Z,1010.6
2018-07-09T09:30:09.457Z,1010.6
2018-07-09T09:31:10.876Z,1010.6
2018-07-09T09:32:12.261Z,1010.6
2018-07-09T09:33:13.664Z,1010.6
2018-07-09T09:34:15.069Z,1010.6
2018-07-09T09:35:16.482Z,1010.6
2018-07-09T09:36:17.880Z,1010.5
2018-07-09T09:37:19.370Z,1010.5
2018-07-09T09:38:20.718Z,1010.5
2018-07-09T09:39:22.123Z,1010.5
2018-07-09T09:40:23.526Z,1010.5
2018-07-09T09:41:24.931Z,1010.5
2018-07-09T09:42:26.333Z,1010.5
2018-07-09T09:43:27.733Z,1010.5
2018-07-09T09:44:29.134Z,1010.5
2018-07-09T09:45:30.544Z,1010.5
2018-07-09T09:46:31.947Z,1010.5
2018-07-09T09:47:33.352Z,1010.5
2018-07-09T09:48:34.754Z,1010.4
2018-07-09T09:49:36.156Z,1010.4
2018-07-09T09:50:37.561Z,1010.4
2018-07-09T09:51:38.972Z,1010.4
2018-07-09T09:52:40.368Z,1010.4
2018-07-09T09:53:41.769Z,1010.4
2018-07-09T09:54:43.178Z,1010.4
2018-07-09T09:55:44.581Z,1010.3
2018-07-09T09:56:46.056Z,1010.4
2018-07-09T09:57:47.449Z,1010.3
2018-07-09T09:58:48.852Z,1010.3
2018-07-09T09:59:50.252Z,1010.3
2018-07-09T10:00:51.653Z,1010.3
2018-07-09T10:01:53.133Z,1010.3
2018-07-09T10:02:54.842Z,1010.3
2018-07-09T10:03:56.255Z,1010.3
2018-07-09T10:04:57.659Z,1010.2
2018-07-09T10:05:59.073Z,1010.2
2018-07-09T10:07:00.486Z,1010.3
2018-07-09T10:08:01.907Z,1010.2
2018-07-09T10:09:03.404Z,1010.2
2018-07-09T10:10:04.833Z,1010.2
2018-07-09T10:11:06.241Z,1010.2
2018-07-09T10:12:07.642Z,1010.2
2018-07-09T10:13:09.064Z,1010.2
2018-07-09T10:14:10.464Z,1010.2
2018-07-09T10:15:11.875Z,1010.2
2018-07-09T10:16:13.285Z,1010.2
2018-07-09T10:17:14.696Z,1010.1
2018-07-09T10:18:16.095Z,1010.1
2018-07-09T10:19:17.602Z,1010.1
2018-07-09T10:20:19.038Z,1010.1
2018-07-09T10:21:20.438Z,1010.1
2018-07-09T10:22:21.832Z,1010.1
2018-07-09T10:23:23.403Z,1010.1
2018-07-09T10:24:24.648Z,1010.1
2018-07-09T10:25:26.070Z,1010.1
2018-07-09T10:26:27.475Z,1010.1
2018-07-09T10:27:28.978Z,1010.1
2018-07-09T10:28:30.389Z,1010.1
2018-07-09T10:29:31.821Z,1010.1
2018-07-09T10:30:33.250Z,1010.1
2018-07-09T10:31:34.641Z,1010.1
2018-07-09T10:32:36.056Z,1010.1
2018-07-09T10:33:37.463Z,1010.1
2018-07-09T10:34:38.877Z,1010.1
2018-07-09T10:35:40.336Z,1010.1
2018-07-09T10:36:41.749Z,1010.1
2018-07-09T10:37:43.192Z,1010.0
2018-07-09T10:38:44.603Z,1010.0
2018-07-09T10:39:46.014Z,1010.0
2018-07-09T10:40:47.413Z,1010.0
2018-07-09T10:41:48.815Z,1010.0
2018-07-09T10:42:50.227Z,1010.0
2018-07-09T10:43:51.700Z,1010.0
2018-07-09T10:44:53.218Z,1010.1
2018-07-09T10:45:54.626Z,1010.1
2018-07-09T10:46:56.033Z,1010.1
2018-07-09T10:47:57.461Z,1010.0
2018-07-09T10:48:58.861Z,1010.0
2018-07-09T10:50:00.262Z,1010.1
2018-07-09T10:51:01.720Z,1010.1
2018-07-09T10:52:03.119Z,1010.1
2018-07-09T10:53:04.998Z,1010.1
2018-07-09T10:54:06.404Z,1010.0
2018-07-09T10:55:07.854Z,1010.0
2018-07-09T10:56:09.203Z,1010.1
2018-07-09T10:57:10.610Z,1010.0
2018-07-09T10:58:12.009Z,1010.0
2018-07-09T10:59:13.414Z,1010.0
2018-07-09T11:00:14.906Z,1010.1
2018-07-09T11:01:16.349Z,1010.1
2018-07-09T11:02:17.750Z,1010.1
2018-07-09T11:03:19.173Z,1010.1
2018-07-09T11:04:20.557Z,1010.0
2018-07-09T11:05:21.963Z,1010.0
2018-07-09T11:06:23.365Z,1010.0
2018-07-09T11:07:24.769Z,1010.0
2018-07-09T11:08:26.179Z,1010.0
2018-07-09T11:09:27.584Z,1010.0
2018-07-09T11:10:28.984Z,1010.0
2018-07-09T11:11:30.397Z,1010.0
2018-07-09T11:12:31.873Z,1010.0
2018-07-09T11:13:33.280Z,1010.0
2018-07-09T11:14:34.814Z,1009.9
2018-07-09T11:15:36.213Z,1009.8
2018-07-09T11:16:37.619Z,1009.8
2018-07-09T11:17:39.088Z,1009.9
2018-07-09T11:18:40.579Z,1009.8
2018-07-09T11:19:41.985Z,1009.8
2018-07-09T11:20:43.399Z,1009.8
2018-07-09T11:21:44.817Z,1009.8
2018-07-09T11:22:46.232Z,1009.8
2018-07-09T11:23:47.646Z,1009.8
2018-07-09T11:24:49.047Z,1009.8
2018-07-09T11:25:50.455Z,1009.8
2018-07-09T11:26:51.858Z,1009.8
2018-07-09T11:27:53.263Z,1009.7
2018-07-09T11:28:54.695Z,1009.7
2018-07-09T11:29:56.115Z,1009.7
2018-07-09T11:30:57.518Z,1009.8
2018-07-09T11:31:58.923Z,1009.8
2018-07-09T11:33:00.329Z,1009.8
2018-07-09T11:34:01.741Z,1009.7
2018-07-09T11:35:03.148Z,1009.7
2018-07-09T11:36:04.591Z,1009.7
2018-07-09T11:37:05.957Z,1009.7
2018-07-09T11:38:07.378Z,1009.7
2018-07-09T11:39:08.782Z,1009.7
2018-07-09T11:40:10.188Z,1009.7
2018-07-09T11:41:11.614Z,1009.7
2018-07-09T11:42:13.139Z,1009.7
2018-07-09T11:43:14.540Z,1009.7
2018-07-09T11:44:15.973Z,1009.7
2018-07-09T11:45:17.381Z,1009.8
2018-07-09T11:46:18.780Z,1009.7
2018-07-09T11:47:20.250Z,1009.7
2018-07-09T11:48:21.653Z,1009.8
2018-07-09T11:49:23.083Z,1009.7
2018-07-09T11:50:24.488Z,1009.6
2018-07-09T11:51:25.889Z,1009.7
2018-07-09T11:52:27.301Z,1009.6
2018-07-09T11:53:28.702Z,1009.7
2018-07-09T11:54:30.103Z,1009.6
2018-07-09T11:55:31.514Z,1009.7
2018-07-09T11:56:32.919Z,1009.7
2018-07-09T11:57:34.332Z,1009.7
2018-07-09T11:58:35.790Z,1009.7
2018-07-09T11:59:37.149Z,1009.7
2018-07-09T12:00:38.551Z,1009.7
2018-07-09T12:01:39.957Z,1009.7
2018-07-09T12:02:41.363Z,1009.7
2018-07-09T12:03:42.766Z,1009.6
2018-07-09T12:04:44.186Z,1009.6
2018-07-09T12:05:45.595Z,1009.6
2018-07-09T12:06:47.004Z,1009.7
2018-07-09T12:07:48.408Z,1009.5
2018-07-09T12:08:49.827Z,1009.6
2018-07-09T12:09:51.232Z,1009.5
2018-07-09T12:10:52.637Z,1009.5
2018-07-09T12:11:54.045Z,1009.5
2018-07-09T12:12:55.465Z,1009.5
2018-07-09T12:13:56.868Z,1009.5
2018-07-09T12:14:58.277Z,1009.5
2018-07-09T12:15:59.680Z,1009.5
2018-07-09T12:17:01.100Z,1009.6
2018-07-09T12:18:02.501Z,1009.7
2018-07-09T12:19:03.908Z,1009.7
2018-07-09T12:20:05.325Z,1009.6
2018-07-09T12:21:06.730Z,1009.6
2018-07-09T12:22:08.131Z,1009.6
2018-07-09T12:23:09.542Z,1009.6
2018-07-09T12:24:11.030Z,1009.5
2018-07-09T12:25:12.472Z,1009.5
2018-07-09T12:26:13.879Z,1009.6
2018-07-09T12:27:15.286Z,1009.6
2018-07-09T12:28:16.709Z,1009.6
2018-07-09T12:29:18.113Z,1009.4
2018-07-09T12:30:19.521Z,1009.6
2018-07-09T12:31:20.925Z,1009.5
2018-07-09T12:32:22.331Z,1009.6
2018-07-09T12:33:23.752Z,1009.5
2018-07-09T12:34:25.159Z,1009.6
2018-07-09T12:35:26.561Z,1009.5
2018-07-09T12:36:28.042Z,1009.5
2018-07-09T12:37:29.369Z,1009.6
2018-07-09T12:38:30.776Z,1009.6
2018-07-09T12:39:32.209Z,1009.6
2018-07-09T12:40:33.617Z,1009.5
2018-07-09T12:41:35.032Z,1009.5
2018-07-09T12:42:36.435Z,1009.5
2018-07-09T12:43:37.842Z,1009.4
2018-07-09T12:44:39.258Z,1009.5
2018-07-09T12:45:40.661Z,1009.5
2018-07-09T12:46:42.075Z,1009.5